sensor_id;sensor_type;location;lat;lon;timestamp;temperature;humidity
6690;DHT22;3382;51.576;8.076;2023-05-10T00:00:12;16.80;99.90
6690;DHT22;3382;51.576;8.076;2023-05-10T00:02:38;16.80;99.90
6690;DHT22;3382;51.576;8.076;2023-05-10T00:05:04;16.70;99.90
6690;DHT22;3382;51.576;8.076;2023-05-10T00:07:30;16.70;99.90
6690;DHT22;3382;51.576;8.076;2023-05-10T00:09:56;16.60;99.90
6690;DHT22;3382;51.576;8.076;2023-05-10T00:12:21;16.70;99.90
6690;DHT22;3382;51.576;8.076;2023-05-10T00:14:47;16.60;99.90
6690;DHT22;3382;51.576;8.076;2023-05-10T00:17:13;16.60;99.90
6690;DHT22;3382;51.576;8.076;2023-05-10T00:19:38;16.50;99.90
6690;DHT22;3382;51.576;8.076;2023-05-10T00:22:04;16.60;99.90
6690;DHT22;3382;51.576;8.076;2023-05-10T00:24:29;16.30;99.90
6690;DHT22;3382;51.576;8.076;2023-05-10T00:26:55;16.30;99.90
6690;DHT22;3382;51.576;8.076;2023-05-10T00:29:20;16.20;99.90
6690;DHT22;3382;51.576;8.076;2023-05-10T00:31:46;16.30;99.90
6690;DHT22;3382;51.576;8.076;2023-05-10T00:34:12;16.20;99.90
6690;DHT22;3382;51.576;8.076;2023-05-10T00:36:37;16.10;99.90
6690;DHT22;3382;51.576;8.076;2023-05-10T00:39:03;16.00;99.90
6690;DHT22;3382;51.576;8.076;2023-05-10T00:41:29;16.00;99.90
6690;DHT22;3382;51.576;8.076;2023-05-10T00:43:58;16.00;99.90
6690;DHT22;3382;51.576;8.076;2023-05-10T00:46:24;16.00;99.90
6690;DHT22;3382;51.576;8.076;2023-05-10T00:48:51;16.00;99.90
6690;DHT22;3382;51.576;8.076;2023-05-10T00:51:17;15.90;99.90
6690;DHT22;3382;51.576;8.076;2023-05-10T00:53:45;15.90;99.90
6690;DHT22;3382;51.576;8.076;2023-05-10T00:56:11;15.80;99.90
6690;DHT22;3382;51.576;8.076;2023-05-10T00:58:38;15.80;99.90
6690;DHT22;3382;51.576;8.076;2023-05-10T01:01:04;15.80;99.90
6690;DHT22;3382;51.576;8.076;2023-05-10T01:03:32;15.80;99.90
6690;DHT22;3382;51.576;8.076;2023-05-10T01:05:58;15.80;99.90
6690;DHT22;3382;51.576;8.076;2023-05-10T01:08:24;15.80;99.90
6690;DHT22;3382;51.576;8.076;2023-05-10T01:10:50;15.70;99.90
6690;DHT22;3382;51.576;8.076;2023-05-10T01:13:33;15.70;99.90
6690;DHT22;3382;51.576;8.076;2023-05-10T01:16:00;15.60;99.90
6690;DHT22;3382;51.576;8.076;2023-05-10T01:18:29;15.60;99.90
6690;DHT22;3382;51.576;8.076;2023-05-10T01:38:24;15.30;99.90
6690;DHT22;3382;51.576;8.076;2023-05-10T01:41:19;15.50;99.90
6690;DHT22;3382;51.576;8.076;2023-05-10T01:46:41;15.40;99.90
6690;DHT22;3382;51.576;8.076;2023-05-10T01:49:13;15.40;99.90
6690;DHT22;3382;51.576;8.076;2023-05-10T01:51:50;15.40;99.90
6690;DHT22;3382;51.576;8.076;2023-05-10T01:54:19;15.50;99.90
6690;DHT22;3382;51.576;8.076;2023-05-10T01:56:47;15.50;99.90
6690;DHT22;3382;51.576;8.076;2023-05-10T01:59:17;15.60;99.90
6690;DHT22;3382;51.576;8.076;2023-05-10T02:01:45;15.70;99.90
6690;DHT22;3382;51.576;8.076;2023-05-10T02:04:14;15.80;99.90
6690;DHT22;3382;51.576;8.076;2023-05-10T02:06:42;15.80;99.90
6690;DHT22;3382;51.576;8.076;2023-05-10T02:09:10;15.80;99.90
6690;DHT22;3382;51.576;8.076;2023-05-10T02:11:38;15.70;99.90
6690;DHT22;3382;51.576;8.076;2023-05-10T02:14:06;15.80;99.90
6690;DHT22;3382;51.576;8.076;2023-05-10T02:16:33;15.80;99.90
6690;DHT22;3382;51.576;8.076;2023-05-10T02:19:01;15.80;99.90
6690;DHT22;3382;51.576;8.076;2023-05-10T02:21:28;15.80;99.90
6690;DHT22;3382;51.576;8.076;2023-05-10T02:23:56;15.70;99.90
6690;DHT22;3382;51.576;8.076;2023-05-10T02:26:23;15.80;99.90
6690;DHT22;3382;51.576;8.076;2023-05-10T02:28:51;15.90;99.90
6690;DHT22;3382;51.576;8.076;2023-05-10T02:31:18;15.90;99.90
6690;DHT22;3382;51.576;8.076;2023-05-10T02:33:44;15.90;99.90
6690;DHT22;3382;51.576;8.076;2023-05-10T02:36:12;16.00;99.90
6690;DHT22;3382;51.576;8.076;2023-05-10T02:38:39;15.80;99.90
6690;DHT22;3382;51.576;8.076;2023-05-10T02:41:05;15.80;99.90
6690;DHT22;3382;51.576;8.076;2023-05-10T02:43:33;15.80;99.90
6690;DHT22;3382;51.576;8.076;2023-05-10T02:45:59;15.80;99.90
6690;DHT22;3382;51.576;8.076;2023-05-10T02:48:25;16.00;99.90
6690;DHT22;3382;51.576;8.076;2023-05-10T02:50:52;15.80;99.90
6690;DHT22;3382;51.576;8.076;2023-05-10T02:53:22;15.80;99.90
6690;DHT22;3382;51.576;8.076;2023-05-10T02:55:52;15.80;99.90
6690;DHT22;3382;51.576;8.076;2023-05-10T02:58:18;15.80;99.90
6690;DHT22;3382;51.576;8.076;2023-05-10T03:00:45;15.70;99.90
6690;DHT22;3382;51.576;8.076;2023-05-10T03:03:11;15.70;99.90
6690;DHT22;3382;51.576;8.076;2023-05-10T03:05:37;15.70;99.90
6690;DHT22;3382;51.576;8.076;2023-05-10T03:08:03;15.70;99.90
6690;DHT22;3382;51.576;8.076;2023-05-10T03:10:30;15.70;99.90
6690;DHT22;3382;51.576;8.076;2023-05-10T03:18:27;15.60;99.90
6690;DHT22;3382;51.576;8.076;2023-05-10T03:20:59;15.60;99.90
6690;DHT22;3382;51.576;8.076;2023-05-10T03:23:42;15.60;99.90
6690;DHT22;3382;51.576;8.076;2023-05-10T03:26:09;15.60;99.90
6690;DHT22;3382;51.576;8.076;2023-05-10T03:28:35;15.60;99.90
6690;DHT22;3382;51.576;8.076;2023-05-10T03:31:02;15.60;99.90
6690;DHT22;3382;51.576;8.076;2023-05-10T03:33:29;15.50;99.90
6690;DHT22;3382;51.576;8.076;2023-05-10T03:35:55;15.40;99.90
6690;DHT22;3382;51.576;8.076;2023-05-10T03:38:20;15.40;99.90
6690;DHT22;3382;51.576;8.076;2023-05-10T03:40:46;15.20;99.90
6690;DHT22;3382;51.576;8.076;2023-05-10T03:43:12;15.30;99.90
6690;DHT22;3382;51.576;8.076;2023-05-10T03:45:37;15.30;99.90
6690;DHT22;3382;51.576;8.076;2023-05-10T03:48:03;15.20;99.90
6690;DHT22;3382;51.576;8.076;2023-05-10T03:50:29;15.20;99.90
6690;DHT22;3382;51.576;8.076;2023-05-10T03:52:54;15.10;99.90
6690;DHT22;3382;51.576;8.076;2023-05-10T03:55:20;15.10;99.90
6690;DHT22;3382;51.576;8.076;2023-05-10T03:57:46;15.10;99.90
6690;DHT22;3382;51.576;8.076;2023-05-10T04:00:12;15.10;99.90
6690;DHT22;3382;51.576;8.076;2023-05-10T04:02:37;15.30;99.90
6690;DHT22;3382;51.576;8.076;2023-05-10T04:05:03;15.50;99.90
6690;DHT22;3382;51.576;8.076;2023-05-10T04:07:29;15.60;99.90
6690;DHT22;3382;51.576;8.076;2023-05-10T04:09:54;15.50;99.90
6690;DHT22;3382;51.576;8.076;2023-05-10T04:12:20;15.40;99.90
6690;DHT22;3382;51.576;8.076;2023-05-10T04:14:46;15.90;99.90
6690;DHT22;3382;51.576;8.076;2023-05-10T04:17:11;15.40;99.90
6690;DHT22;3382;51.576;8.076;2023-05-10T04:19:37;15.40;99.90
6690;DHT22;3382;51.576;8.076;2023-05-10T04:22:03;15.40;99.90
6690;DHT22;3382;51.576;8.076;2023-05-10T04:24:28;15.30;99.90
6690;DHT22;3382;51.576;8.076;2023-05-10T04:26:54;15.20;99.90
6690;DHT22;3382;51.576;8.076;2023-05-10T04:29:20;15.30;99.90
6690;DHT22;3382;51.576;8.076;2023-05-10T04:31:46;15.20;99.90
6690;DHT22;3382;51.576;8.076;2023-05-10T04:34:12;15.20;99.90
6690;DHT22;3382;51.576;8.076;2023-05-10T04:36:38;15.20;99.90
6690;DHT22;3382;51.576;8.076;2023-05-10T04:39:04;15.30;99.90
6690;DHT22;3382;51.576;8.076;2023-05-10T04:41:30;15.30;99.90
6690;DHT22;3382;51.576;8.076;2023-05-10T04:43:56;15.20;99.90
6690;DHT22;3382;51.576;8.076;2023-05-10T04:46:21;15.20;99.90
6690;DHT22;3382;51.576;8.076;2023-05-10T04:48:47;15.30;99.90
6690;DHT22;3382;51.576;8.076;2023-05-10T04:51:13;15.30;99.90
6690;DHT22;3382;51.576;8.076;2023-05-10T04:53:39;15.40;99.90
6690;DHT22;3382;51.576;8.076;2023-05-10T04:56:04;15.40;99.90
6690;DHT22;3382;51.576;8.076;2023-05-10T04:58:30;15.40;99.90
6690;DHT22;3382;51.576;8.076;2023-05-10T05:00:56;15.50;99.90
6690;DHT22;3382;51.576;8.076;2023-05-10T05:03:21;15.40;99.90
6690;DHT22;3382;51.576;8.076;2023-05-10T05:05:47;15.50;99.90
6690;DHT22;3382;51.576;8.076;2023-05-10T05:08:13;16.00;99.90
6690;DHT22;3382;51.576;8.076;2023-05-10T05:10:39;16.10;99.90
6690;DHT22;3382;51.576;8.076;2023-05-10T05:13:05;16.20;99.90
6690;DHT22;3382;51.576;8.076;2023-05-10T05:15:31;16.60;99.90
6690;DHT22;3382;51.576;8.076;2023-05-10T05:17:56;16.60;99.90
6690;DHT22;3382;51.576;8.076;2023-05-10T05:20:22;16.60;99.90
6690;DHT22;3382;51.576;8.076;2023-05-10T05:22:48;16.40;99.90
6690;DHT22;3382;51.576;8.076;2023-05-10T05:25:13;16.40;99.90
6690;DHT22;3382;51.576;8.076;2023-05-10T05:27:40;16.40;99.90
6690;DHT22;3382;51.576;8.076;2023-05-10T05:30:06;16.30;99.90
6690;DHT22;3382;51.576;8.076;2023-05-10T05:32:33;16.20;99.90
6690;DHT22;3382;51.576;8.076;2023-05-10T05:34:58;16.20;99.90
6690;DHT22;3382;51.576;8.076;2023-05-10T05:37:24;16.40;99.90
6690;DHT22;3382;51.576;8.076;2023-05-10T05:39:50;16.30;99.90
6690;DHT22;3382;51.576;8.076;2023-05-10T05:42:16;16.60;99.90
6690;DHT22;3382;51.576;8.076;2023-05-10T05:44:43;17.30;99.90
6690;DHT22;3382;51.576;8.076;2023-05-10T05:47:09;17.90;99.90
6690;DHT22;3382;51.576;8.076;2023-05-10T05:49:35;17.50;99.90
6690;DHT22;3382;51.576;8.076;2023-05-10T05:52:02;17.00;99.90
6690;DHT22;3382;51.576;8.076;2023-05-10T05:54:29;16.70;99.90
6690;DHT22;3382;51.576;8.076;2023-05-10T05:56:56;16.50;99.90
6690;DHT22;3382;51.576;8.076;2023-05-10T05:59:22;16.30;99.90
6690;DHT22;3382;51.576;8.076;2023-05-10T06:01:48;16.30;99.90
6690;DHT22;3382;51.576;8.076;2023-05-10T06:04:14;16.30;99.90
6690;DHT22;3382;51.576;8.076;2023-05-10T06:06:39;16.30;99.90
6690;DHT22;3382;51.576;8.076;2023-05-10T06:09:05;16.20;99.90
6690;DHT22;3382;51.576;8.076;2023-05-10T06:11:30;16.10;99.90
6690;DHT22;3382;51.576;8.076;2023-05-10T06:13:58;16.00;99.90
6690;DHT22;3382;51.576;8.076;2023-05-10T06:16:23;16.00;99.90
6690;DHT22;3382;51.576;8.076;2023-05-10T06:18:49;16.00;99.90
6690;DHT22;3382;51.576;8.076;2023-05-10T06:21:14;15.90;99.90
6690;DHT22;3382;51.576;8.076;2023-05-10T06:23:41;15.80;99.90
6690;DHT22;3382;51.576;8.076;2023-05-10T06:26:07;15.90;99.90
6690;DHT22;3382;51.576;8.076;2023-05-10T06:28:32;16.10;99.90
6690;DHT22;3382;51.576;8.076;2023-05-10T06:30:59;16.20;99.90
6690;DHT22;3382;51.576;8.076;2023-05-10T06:33:24;16.10;99.90
6690;DHT22;3382;51.576;8.076;2023-05-10T06:35:51;16.10;99.90
6690;DHT22;3382;51.576;8.076;2023-05-10T06:38:16;16.00;99.90
6690;DHT22;3382;51.576;8.076;2023-05-10T06:40:42;16.00;99.90
6690;DHT22;3382;51.576;8.076;2023-05-10T06:43:08;16.00;99.90
6690;DHT22;3382;51.576;8.076;2023-05-10T06:45:34;15.90;99.90
6690;DHT22;3382;51.576;8.076;2023-05-10T06:47:59;15.90;99.90
6690;DHT22;3382;51.576;8.076;2023-05-10T06:50:25;15.90;99.90
6690;DHT22;3382;51.576;8.076;2023-05-10T06:52:51;16.00;99.90
6690;DHT22;3382;51.576;8.076;2023-05-10T06:55:17;15.90;99.90
6690;DHT22;3382;51.576;8.076;2023-05-10T06:57:42;15.90;99.90
6690;DHT22;3382;51.576;8.076;2023-05-10T07:00:08;16.00;99.90
6690;DHT22;3382;51.576;8.076;2023-05-10T07:02:35;16.00;99.90
6690;DHT22;3382;51.576;8.076;2023-05-10T07:05:01;16.00;99.90
6690;DHT22;3382;51.576;8.076;2023-05-10T07:07:27;16.00;99.90
6690;DHT22;3382;51.576;8.076;2023-05-10T07:09:53;16.10;99.90
6690;DHT22;3382;51.576;8.076;2023-05-10T07:12:18;16.10;99.90
6690;DHT22;3382;51.576;8.076;2023-05-10T07:14:44;16.00;99.90
6690;DHT22;3382;51.576;8.076;2023-05-10T07:17:11;15.90;99.90
6690;DHT22;3382;51.576;8.076;2023-05-10T07:19:36;16.00;99.90
6690;DHT22;3382;51.576;8.076;2023-05-10T07:22:02;16.00;99.90
6690;DHT22;3382;51.576;8.076;2023-05-10T07:24:27;16.00;99.90
6690;DHT22;3382;51.576;8.076;2023-05-10T07:26:53;16.00;99.90
6690;DHT22;3382;51.576;8.076;2023-05-10T07:29:19;16.00;99.90
6690;DHT22;3382;51.576;8.076;2023-05-10T07:31:44;16.00;99.90
6690;DHT22;3382;51.576;8.076;2023-05-10T07:34:10;16.10;99.90
6690;DHT22;3382;51.576;8.076;2023-05-10T07:36:35;16.20;99.90
6690;DHT22;3382;51.576;8.076;2023-05-10T07:39:01;16.30;99.90
6690;DHT22;3382;51.576;8.076;2023-05-10T07:41:28;16.40;99.90
6690;DHT22;3382;51.576;8.076;2023-05-10T07:43:53;16.60;99.90
6690;DHT22;3382;51.576;8.076;2023-05-10T07:46:19;16.60;99.90
6690;DHT22;3382;51.576;8.076;2023-05-10T07:48:45;16.70;99.90
6690;DHT22;3382;51.576;8.076;2023-05-10T07:51:11;17.00;99.90
6690;DHT22;3382;51.576;8.076;2023-05-10T07:53:37;17.20;99.90
6690;DHT22;3382;51.576;8.076;2023-05-10T07:56:28;17.40;99.90
6690;DHT22;3382;51.576;8.076;2023-05-10T07:58:58;17.30;99.90
6690;DHT22;3382;51.576;8.076;2023-05-10T08:01:24;17.20;99.90
6690;DHT22;3382;51.576;8.076;2023-05-10T08:03:50;17.40;99.90
6690;DHT22;3382;51.576;8.076;2023-05-10T08:06:17;17.40;99.90
6690;DHT22;3382;51.576;8.076;2023-05-10T08:08:43;17.30;99.90
6690;DHT22;3382;51.576;8.076;2023-05-10T08:11:15;17.50;99.90
6690;DHT22;3382;51.576;8.076;2023-05-10T08:13:40;17.80;99.90
6690;DHT22;3382;51.576;8.076;2023-05-10T08:16:06;18.00;99.90
6690;DHT22;3382;51.576;8.076;2023-05-10T08:18:32;18.00;99.90
6690;DHT22;3382;51.576;8.076;2023-05-10T08:20:58;18.20;99.90
6690;DHT22;3382;51.576;8.076;2023-05-10T08:23:23;18.50;99.90
6690;DHT22;3382;51.576;8.076;2023-05-10T08:25:49;18.70;99.90
6690;DHT22;3382;51.576;8.076;2023-05-10T08:28:15;18.90;99.90
6690;DHT22;3382;51.576;8.076;2023-05-10T08:30:40;19.10;99.90
6690;DHT22;3382;51.576;8.076;2023-05-10T08:33:06;19.40;99.90
6690;DHT22;3382;51.576;8.076;2023-05-10T08:35:31;19.60;99.90
6690;DHT22;3382;51.576;8.076;2023-05-10T08:37:58;19.70;99.90
6690;DHT22;3382;51.576;8.076;2023-05-10T08:40:24;19.80;99.90
6690;DHT22;3382;51.576;8.076;2023-05-10T08:43:06;19.70;99.90
6690;DHT22;3382;51.576;8.076;2023-05-10T08:45:33;19.70;99.90
6690;DHT22;3382;51.576;8.076;2023-05-10T08:48:06;19.80;99.90
6690;DHT22;3382;51.576;8.076;2023-05-10T08:50:37;19.90;99.90
6690;DHT22;3382;51.576;8.076;2023-05-10T08:53:11;19.70;99.90
6690;DHT22;3382;51.576;8.076;2023-05-10T08:55:37;20.30;99.90
6690;DHT22;3382;51.576;8.076;2023-05-10T08:58:04;20.40;99.90
6690;DHT22;3382;51.576;8.076;2023-05-10T09:00:30;20.60;99.90
6690;DHT22;3382;51.576;8.076;2023-05-10T09:02:58;20.70;99.90
6690;DHT22;3382;51.576;8.076;2023-05-10T09:05:23;20.70;99.90
6690;DHT22;3382;51.576;8.076;2023-05-10T09:07:49;20.80;99.90
6690;DHT22;3382;51.576;8.076;2023-05-10T09:10:15;20.80;99.90
6690;DHT22;3382;51.576;8.076;2023-05-10T09:12:41;20.90;99.90
6690;DHT22;3382;51.576;8.076;2023-05-10T09:15:09;21.00;99.90
6690;DHT22;3382;51.576;8.076;2023-05-10T09:17:36;21.00;99.90
6690;DHT22;3382;51.576;8.076;2023-05-10T09:20:03;21.10;99.90
6690;DHT22;3382;51.576;8.076;2023-05-10T09:22:33;21.20;99.90
6690;DHT22;3382;51.576;8.076;2023-05-10T09:25:05;21.40;99.90
6690;DHT22;3382;51.576;8.076;2023-05-10T09:27:32;21.40;99.90
6690;DHT22;3382;51.576;8.076;2023-05-10T09:29:57;21.30;99.90
6690;DHT22;3382;51.576;8.076;2023-05-10T09:32:43;21.50;99.90
6690;DHT22;3382;51.576;8.076;2023-05-10T09:35:13;21.50;99.90
6690;DHT22;3382;51.576;8.076;2023-05-10T09:37:40;21.70;99.90
6690;DHT22;3382;51.576;8.076;2023-05-10T09:40:14;21.70;99.90
6690;DHT22;3382;51.576;8.076;2023-05-10T09:42:57;21.90;99.90
6690;DHT22;3382;51.576;8.076;2023-05-10T09:45:25;21.90;99.90
6690;DHT22;3382;51.576;8.076;2023-05-10T09:47:51;22.10;99.90
6690;DHT22;3382;51.576;8.076;2023-05-10T09:50:16;22.10;99.90
6690;DHT22;3382;51.576;8.076;2023-05-10T09:52:58;22.10;99.90
6690;DHT22;3382;51.576;8.076;2023-05-10T09:55:26;22.30;99.90
6690;DHT22;3382;51.576;8.076;2023-05-10T09:58:03;22.50;99.90
6690;DHT22;3382;51.576;8.076;2023-05-10T10:00:35;22.40;99.90
6690;DHT22;3382;51.576;8.076;2023-05-10T10:03:01;22.30;99.90
6690;DHT22;3382;51.576;8.076;2023-05-10T10:05:35;22.10;99.90
6690;DHT22;3382;51.576;8.076;2023-05-10T10:08:04;21.90;99.90
6690;DHT22;3382;51.576;8.076;2023-05-10T10:10:32;21.80;99.90
6690;DHT22;3382;51.576;8.076;2023-05-10T10:12:58;21.60;99.90
6690;DHT22;3382;51.576;8.076;2023-05-10T10:15:24;21.60;99.90
6690;DHT22;3382;51.576;8.076;2023-05-10T10:17:50;21.50;99.90
6690;DHT22;3382;51.576;8.076;2023-05-10T10:20:17;21.50;99.90
6690;DHT22;3382;51.576;8.076;2023-05-10T10:22:43;21.50;99.90
6690;DHT22;3382;51.576;8.076;2023-05-10T10:25:10;21.70;99.90
6690;DHT22;3382;51.576;8.076;2023-05-10T10:30:41;21.80;99.90
6690;DHT22;3382;51.576;8.076;2023-05-10T10:35:39;22.30;99.90
6690;DHT22;3382;51.576;8.076;2023-05-10T10:38:08;22.30;99.90
6690;DHT22;3382;51.576;8.076;2023-05-10T10:40:34;22.30;99.90
6690;DHT22;3382;51.576;8.076;2023-05-10T10:43:25;22.30;99.90
6690;DHT22;3382;51.576;8.076;2023-05-10T10:48:40;22.10;99.90
6690;DHT22;3382;51.576;8.076;2023-05-10T10:51:05;21.90;99.90
6690;DHT22;3382;51.576;8.076;2023-05-10T10:53:32;21.80;99.90
6690;DHT22;3382;51.576;8.076;2023-05-10T10:56:08;21.60;99.90
6690;DHT22;3382;51.576;8.076;2023-05-10T10:58:36;21.60;99.90
6690;DHT22;3382;51.576;8.076;2023-05-10T11:01:18;21.70;99.90
6690;DHT22;3382;51.576;8.076;2023-05-10T11:06:36;22.20;99.90
6690;DHT22;3382;51.576;8.076;2023-05-10T11:09:07;22.50;99.90
6690;DHT22;3382;51.576;8.076;2023-05-10T11:11:34;22.60;99.90
6690;DHT22;3382;51.576;8.076;2023-05-10T11:14:06;22.70;99.90
6690;DHT22;3382;51.576;8.076;2023-05-10T11:16:43;22.80;99.90
6690;DHT22;3382;51.576;8.076;2023-05-10T11:19:11;23.00;99.90
6690;DHT22;3382;51.576;8.076;2023-05-10T11:22:12;23.20;99.90
6690;DHT22;3382;51.576;8.076;2023-05-10T11:24:39;23.20;99.90
6690;DHT22;3382;51.576;8.076;2023-05-10T11:27:05;23.30;99.90
6690;DHT22;3382;51.576;8.076;2023-05-10T11:29:31;23.30;99.90
6690;DHT22;3382;51.576;8.076;2023-05-10T11:31:57;23.30;99.90
6690;DHT22;3382;51.576;8.076;2023-05-10T11:34:25;23.50;99.90
6690;DHT22;3382;51.576;8.076;2023-05-10T11:36:52;23.60;99.90
6690;DHT22;3382;51.576;8.076;2023-05-10T11:39:19;23.60;99.90
6690;DHT22;3382;51.576;8.076;2023-05-10T11:41:48;23.50;99.90
6690;DHT22;3382;51.576;8.076;2023-05-10T11:44:14;23.50;99.90
6690;DHT22;3382;51.576;8.076;2023-05-10T11:46:40;23.60;99.90
6690;DHT22;3382;51.576;8.076;2023-05-10T11:49:07;23.60;99.90
6690;DHT22;3382;51.576;8.076;2023-05-10T11:51:34;23.50;99.90
6690;DHT22;3382;51.576;8.076;2023-05-10T11:54:08;23.40;99.90
6690;DHT22;3382;51.576;8.076;2023-05-10T11:56:34;23.50;99.90
6690;DHT22;3382;51.576;8.076;2023-05-10T11:59:00;23.50;99.90
6690;DHT22;3382;51.576;8.076;2023-05-10T12:01:28;23.60;99.90
6690;DHT22;3382;51.576;8.076;2023-05-10T12:03:57;23.80;99.90
6690;DHT22;3382;51.576;8.076;2023-05-10T12:06:27;23.90;99.90
6690;DHT22;3382;51.576;8.076;2023-05-10T12:08:52;24.00;99.90
6690;DHT22;3382;51.576;8.076;2023-05-10T12:11:19;24.10;99.90
6690;DHT22;3382;51.576;8.076;2023-05-10T12:13:46;24.00;99.90
6690;DHT22;3382;51.576;8.076;2023-05-10T12:16:23;24.00;99.90
6690;DHT22;3382;51.576;8.076;2023-05-10T12:18:50;24.00;99.90
6690;DHT22;3382;51.576;8.076;2023-05-10T12:21:17;24.10;99.90
6690;DHT22;3382;51.576;8.076;2023-05-10T12:23:45;24.20;99.90
6690;DHT22;3382;51.576;8.076;2023-05-10T12:26:11;24.20;99.90
6690;DHT22;3382;51.576;8.076;2023-05-10T12:28:37;24.20;99.90
6690;DHT22;3382;51.576;8.076;2023-05-10T12:31:05;24.30;99.90
6690;DHT22;3382;51.576;8.076;2023-05-10T12:33:36;24.30;99.90
6690;DHT22;3382;51.576;8.076;2023-05-10T12:36:04;24.30;99.90
6690;DHT22;3382;51.576;8.076;2023-05-10T12:41:02;24.10;99.90
6690;DHT22;3382;51.576;8.076;2023-05-10T12:43:28;24.20;99.90
6690;DHT22;3382;51.576;8.076;2023-05-10T12:45:54;24.10;99.90
6690;DHT22;3382;51.576;8.076;2023-05-10T12:48:20;24.10;99.90
6690;DHT22;3382;51.576;8.076;2023-05-10T12:50:46;24.00;99.90
6690;DHT22;3382;51.576;8.076;2023-05-10T12:53:13;23.90;99.90
6690;DHT22;3382;51.576;8.076;2023-05-10T12:55:43;24.00;99.90
6690;DHT22;3382;51.576;8.076;2023-05-10T12:58:09;23.80;99.90
6690;DHT22;3382;51.576;8.076;2023-05-10T13:00:35;23.40;99.90
6690;DHT22;3382;51.576;8.076;2023-05-10T13:03:06;23.10;99.90
6690;DHT22;3382;51.576;8.076;2023-05-10T13:05:32;23.10;99.90
6690;DHT22;3382;51.576;8.076;2023-05-10T13:07:58;23.20;99.90
6690;DHT22;3382;51.576;8.076;2023-05-10T13:10:24;23.50;99.90
6690;DHT22;3382;51.576;8.076;2023-05-10T13:12:50;23.30;99.90
6690;DHT22;3382;51.576;8.076;2023-05-10T13:15:16;23.20;99.90
6690;DHT22;3382;51.576;8.076;2023-05-10T13:17:42;23.40;99.90
6690;DHT22;3382;51.576;8.076;2023-05-10T13:20:08;23.60;99.90
6690;DHT22;3382;51.576;8.076;2023-05-10T13:22:35;23.60;99.90
6690;DHT22;3382;51.576;8.076;2023-05-10T13:25:01;23.60;99.90
6690;DHT22;3382;51.576;8.076;2023-05-10T13:27:26;23.40;99.90
6690;DHT22;3382;51.576;8.076;2023-05-10T13:29:52;23.40;99.90
6690;DHT22;3382;51.576;8.076;2023-05-10T13:32:18;23.50;99.90
6690;DHT22;3382;51.576;8.076;2023-05-10T13:34:44;23.60;99.90
6690;DHT22;3382;51.576;8.076;2023-05-10T13:37:09;23.70;99.90
6690;DHT22;3382;51.576;8.076;2023-05-10T13:39:35;23.80;99.90
6690;DHT22;3382;51.576;8.076;2023-05-10T13:42:03;23.80;99.90
6690;DHT22;3382;51.576;8.076;2023-05-10T13:44:28;23.90;99.90
6690;DHT22;3382;51.576;8.076;2023-05-10T13:46:54;24.00;99.90
6690;DHT22;3382;51.576;8.076;2023-05-10T13:49:20;23.90;99.90
6690;DHT22;3382;51.576;8.076;2023-05-10T13:51:47;24.00;99.90
6690;DHT22;3382;51.576;8.076;2023-05-10T13:54:13;24.10;99.90
6690;DHT22;3382;51.576;8.076;2023-05-10T13:56:39;24.10;99.90
6690;DHT22;3382;51.576;8.076;2023-05-10T13:59:05;24.10;99.90
6690;DHT22;3382;51.576;8.076;2023-05-10T14:01:31;24.10;99.90
6690;DHT22;3382;51.576;8.076;2023-05-10T14:03:57;24.00;99.90
6690;DHT22;3382;51.576;8.076;2023-05-10T14:06:22;24.00;99.90
6690;DHT22;3382;51.576;8.076;2023-05-10T14:08:48;24.00;99.90
6690;DHT22;3382;51.576;8.076;2023-05-10T14:11:14;24.00;99.90
6690;DHT22;3382;51.576;8.076;2023-05-10T14:13:39;24.00;99.90
6690;DHT22;3382;51.576;8.076;2023-05-10T14:16:05;24.00;99.90
6690;DHT22;3382;51.576;8.076;2023-05-10T14:18:31;24.00;99.90
6690;DHT22;3382;51.576;8.076;2023-05-10T14:20:56;24.00;99.90
6690;DHT22;3382;51.576;8.076;2023-05-10T14:23:22;24.00;99.90
6690;DHT22;3382;51.576;8.076;2023-05-10T14:25:52;24.10;99.90
6690;DHT22;3382;51.576;8.076;2023-05-10T14:28:18;24.20;99.90
6690;DHT22;3382;51.576;8.076;2023-05-10T14:30:44;24.20;99.90
6690;DHT22;3382;51.576;8.076;2023-05-10T14:33:10;24.10;99.90
6690;DHT22;3382;51.576;8.076;2023-05-10T14:35:35;24.00;99.90
6690;DHT22;3382;51.576;8.076;2023-05-10T14:38:02;24.00;99.90
6690;DHT22;3382;51.576;8.076;2023-05-10T14:40:29;23.70;99.90
6690;DHT22;3382;51.576;8.076;2023-05-10T14:42:55;23.60;99.90
6690;DHT22;3382;51.576;8.076;2023-05-10T14:45:22;23.50;99.90
6690;DHT22;3382;51.576;8.076;2023-05-10T14:47:48;23.50;99.90
6690;DHT22;3382;51.576;8.076;2023-05-10T14:50:14;23.50;99.90
6690;DHT22;3382;51.576;8.076;2023-05-10T14:52:39;23.50;99.90
6690;DHT22;3382;51.576;8.076;2023-05-10T14:55:05;23.40;99.90
6690;DHT22;3382;51.576;8.076;2023-05-10T14:57:31;23.40;99.90
6690;DHT22;3382;51.576;8.076;2023-05-10T14:59:57;23.40;99.90
6690;DHT22;3382;51.576;8.076;2023-05-10T15:02:26;23.30;99.90
6690;DHT22;3382;51.576;8.076;2023-05-10T15:04:51;23.30;99.90
6690;DHT22;3382;51.576;8.076;2023-05-10T15:07:17;23.30;99.90
6690;DHT22;3382;51.576;8.076;2023-05-10T15:09:44;23.30;99.90
6690;DHT22;3382;51.576;8.076;2023-05-10T15:12:10;23.30;99.90
6690;DHT22;3382;51.576;8.076;2023-05-10T15:14:36;23.30;99.90
6690;DHT22;3382;51.576;8.076;2023-05-10T15:17:02;23.30;99.90
6690;DHT22;3382;51.576;8.076;2023-05-10T15:19:27;23.20;99.90
6690;DHT22;3382;51.576;8.076;2023-05-10T15:21:54;23.20;99.90
6690;DHT22;3382;51.576;8.076;2023-05-10T15:24:21;23.20;99.90
6690;DHT22;3382;51.576;8.076;2023-05-10T15:26:47;23.20;99.90
6690;DHT22;3382;51.576;8.076;2023-05-10T15:29:12;23.20;99.90
6690;DHT22;3382;51.576;8.076;2023-05-10T15:31:45;23.30;99.90
6690;DHT22;3382;51.576;8.076;2023-05-10T15:34:11;23.30;99.90
6690;DHT22;3382;51.576;8.076;2023-05-10T15:36:36;23.30;99.90
6690;DHT22;3382;51.576;8.076;2023-05-10T15:39:02;23.30;99.90
6690;DHT22;3382;51.576;8.076;2023-05-10T15:41:28;23.40;99.90
6690;DHT22;3382;51.576;8.076;2023-05-10T15:43:54;23.40;99.90
6690;DHT22;3382;51.576;8.076;2023-05-10T15:46:20;23.30;99.90
6690;DHT22;3382;51.576;8.076;2023-05-10T15:48:46;23.30;99.90
6690;DHT22;3382;51.576;8.076;2023-05-10T15:51:12;23.40;99.90
6690;DHT22;3382;51.576;8.076;2023-05-10T15:53:38;23.30;99.90
6690;DHT22;3382;51.576;8.076;2023-05-10T15:56:04;23.30;99.90
6690;DHT22;3382;51.576;8.076;2023-05-10T15:58:30;23.30;99.90
6690;DHT22;3382;51.576;8.076;2023-05-10T16:00:56;23.30;99.90
6690;DHT22;3382;51.576;8.076;2023-05-10T16:03:22;23.30;99.90
6690;DHT22;3382;51.576;8.076;2023-05-10T16:05:47;23.30;99.90
6690;DHT22;3382;51.576;8.076;2023-05-10T16:08:13;23.30;99.90
6690;DHT22;3382;51.576;8.076;2023-05-10T16:10:39;23.40;99.90
6690;DHT22;3382;51.576;8.076;2023-05-10T16:13:05;23.50;99.90
6690;DHT22;3382;51.576;8.076;2023-05-10T16:15:30;23.50;99.90
6690;DHT22;3382;51.576;8.076;2023-05-10T16:17:56;23.60;99.90
6690;DHT22;3382;51.576;8.076;2023-05-10T16:20:22;23.60;99.90
6690;DHT22;3382;51.576;8.076;2023-05-10T16:22:48;23.70;99.90
6690;DHT22;3382;51.576;8.076;2023-05-10T16:25:14;23.70;99.90
6690;DHT22;3382;51.576;8.076;2023-05-10T16:27:39;23.70;99.90
6690;DHT22;3382;51.576;8.076;2023-05-10T16:30:05;23.70;99.90
6690;DHT22;3382;51.576;8.076;2023-05-10T16:32:31;23.60;99.90
6690;DHT22;3382;51.576;8.076;2023-05-10T16:34:57;23.50;99.90
6690;DHT22;3382;51.576;8.076;2023-05-10T16:37:23;23.50;99.90
6690;DHT22;3382;51.576;8.076;2023-05-10T16:39:49;23.70;99.90